Time;durP1;ratioP1;P1;durP2;ratioP2;P2;SDS_P1;SDS_P2;PMS_P1;PMS_P2;Temp;Humidity;BMP_temperature;BMP_pressure;BME280_temperature;BME280_humidity;BME280_pressure;Samples;Min_cycle;Max_cycle;Signal;HPM_P1;HPM_P2
2022/03/15 00:00:46;;;;;;;9.10;5.30;;;4.50;99.90;;;;;;4977921;28;20514;-85
2022/03/15 00:03:11;;;;;;;12.63;5.70;;;4.50;99.90;;;;;;4961253;28;20030;-85
2022/03/15 00:05:37;;;;;;;13.32;5.05;;;4.60;99.90;;;;;;4977291;28;20018;-85
2022/03/15 00:08:04;;;;;;;12.65;4.93;;;4.60;99.90;;;;;;4961100;28;20536;-85
2022/03/15 00:10:29;;;;;;;9.20;5.50;;;4.50;99.90;;;;;;4994624;28;20031;-85
2022/03/15 00:12:56;;;;;;;12.13;5.85;;;4.50;99.90;;;;;;4993164;28;20110;-85
2022/03/15 00:15:24;;;;;;;9.95;4.70;;;4.50;99.90;;;;;;4977054;28;20559;-85
2022/03/15 00:17:50;;;;;;;8.20;5.10;;;4.60;99.90;;;;;;4975869;28;20037;-85
2022/03/15 00:20:53;;;;;;;11.32;6.85;;;4.60;99.90;;;;;;4960319;28;20151;-85
2022/03/15 00:23:19;;;;;;;11.60;5.57;;;4.60;99.90;;;;;;4991814;28;20038;-85
2022/03/15 00:25:44;;;;;;;11.63;5.00;;;4.50;99.90;;;;;;4994101;28;20031;-85
2022/03/15 00:28:10;;;;;;;10.43;4.65;;;4.50;99.90;;;;;;4993058;28;20436;-85
2022/03/15 00:30:37;;;;;;;12.18;3.80;;;4.50;99.90;;;;;;4994650;28;20727;-86
2022/03/15 00:33:03;;;;;;;8.02;3.80;;;4.60;99.90;;;;;;4976938;28;20031;-85
2022/03/15 00:35:29;;;;;;;9.00;4.50;;;4.60;99.90;;;;;;4960635;28;20023;-84
2022/03/15 00:37:55;;;;;;;10.35;4.72;;;4.70;99.90;;;;;;4960744;28;20027;-86
2022/03/15 00:40:23;;;;;;;10.90;4.93;;;4.70;99.90;;;;;;4994675;28;20031;-85
2022/03/15 00:42:52;;;;;;;11.80;4.78;;;4.70;99.90;;;;;;4960879;28;20061;-85
2022/03/15 00:45:23;;;;;;;9.30;4.20;;;4.70;99.90;;;;;;4977294;28;20030;-85
2022/03/15 00:47:50;;;;;;;8.90;4.05;;;4.70;99.90;;;;;;4992851;28;20057;-85
2022/03/15 00:50:17;;;;;;;7.07;4.10;;;4.60;99.90;;;;;;4992677;28;20084;-85
2022/03/15 00:52:42;;;;;;;9.10;4.22;;;4.60;99.90;;;;;;4992921;28;20077;-85
2022/03/15 00:55:09;;;;;;;8.18;4.00;;;4.70;99.90;;;;;;4994007;28;20473;-85
2022/03/15 00:57:35;;;;;;;12.00;4.20;;;4.70;99.90;;;;;;4992306;28;20117;-86
2022/03/15 01:00:02;;;;;;;10.45;4.00;;;4.70;99.90;;;;;;4976718;28;20799;-85
2022/03/15 01:02:28;;;;;;;9.20;4.53;;;4.80;99.90;;;;;;4994409;28;20157;-86
2022/03/15 01:04:54;;;;;;;9.57;4.63;;;4.70;99.90;;;;;;4994983;28;20065;-85
2022/03/15 01:07:23;;;;;;;10.38;4.57;;;4.70;99.90;;;;;;4976970;28;20038;-85
2022/03/15 01:09:50;;;;;;;6.30;4.13;;;4.70;99.90;;;;;;4976749;28;20034;-86
2022/03/15 01:12:16;;;;;;;8.18;4.30;;;4.70;99.90;;;;;;4960389;28;20035;-85
2022/03/15 01:14:44;;;;;;;13.60;4.28;;;4.60;99.90;;;;;;4994208;28;20454;-85
2022/03/15 01:17:11;;;;;;;12.88;4.38;;;4.60;99.90;;;;;;4976197;28;20113;-85
2022/03/15 01:19:37;;;;;;;9.65;4.13;;;4.60;99.90;;;;;;4976661;28;20058;-85
2022/03/15 01:22:03;;;;;;;9.80;4.00;;;4.60;99.90;;;;;;4993805;28;20038;-85
2022/03/15 01:24:28;;;;;;;14.10;4.32;;;4.70;99.90;;;;;;4960626;28;20039;-85
2022/03/15 01:26:56;;;;;;;9.32;4.35;;;4.60;99.90;;;;;;4960121;28;20037;-85
2022/03/15 01:29:26;;;;;;;10.20;4.30;;;4.70;99.90;;;;;;4960290;28;20500;-84
2022/03/15 01:31:52;;;;;;;5.40;3.55;;;4.70;99.90;;;;;;4993757;28;20035;-85
2022/03/15 01:34:18;;;;;;;10.70;4.05;;;4.70;99.90;;;;;;4976353;28;20022;-85
2022/03/15 01:36:58;;;;;;;11.70;3.92;;;4.60;99.90;;;;;;4980116;28;20029;-85
2022/03/15 01:39:27;;;;;;;10.68;3.50;;;4.70;99.90;;;;;;4979965;28;20030;-85
2022/03/15 01:41:53;;;;;;;6.22;3.40;;;4.60;99.90;;;;;;4979869;28;20029;-85
2022/03/15 01:44:21;;;;;;;10.73;3.03;;;4.70;99.90;;;;;;4980004;28;20026;-86
2022/03/15 01:46:49;;;;;;;13.55;3.35;;;4.70;99.90;;;;;;4963789;28;20038;-85
2022/03/15 01:49:18;;;;;;;9.15;2.72;;;4.70;99.90;;;;;;4995635;28;20046;-85
2022/03/15 01:51:46;;;;;;;5.57;2.58;;;4.80;99.90;;;;;;4963432;28;20579;-85
2022/03/15 01:54:13;;;;;;;3.75;2.33;;;4.80;99.90;;;;;;4962992;28;20038;-85
2022/03/15 01:56:40;;;;;;;8.68;2.78;;;4.80;99.90;;;;;;4995474;28;20049;-85
2022/03/15 01:59:11;;;;;;;7.30;3.33;;;4.70;99.90;;;;;;4963558;28;20077;-85
2022/03/15 02:01:38;;;;;;;7.40;2.53;;;4.60;99.90;;;;;;4963380;28;20038;-85
2022/03/15 02:04:04;;;;;;;8.88;2.90;;;4.80;99.90;;;;;;4996975;28;20045;-85
2022/03/15 02:06:30;;;;;;;7.22;2.67;;;4.70;99.90;;;;;;4963755;28;20046;-85
2022/03/15 02:08:56;;;;;;;9.30;3.13;;;4.70;99.90;;;;;;4996560;28;20488;-85
2022/03/15 02:11:22;;;;;;;6.65;2.60;;;4.70;99.90;;;;;;4979434;28;20039;-85
2022/03/15 02:13:52;;;;;;;9.65;2.50;;;4.70;99.90;;;;;;4979509;28;20477;-85
2022/03/15 02:16:18;;;;;;;10.15;2.60;;;4.60;99.90;;;;;;4995896;28;20030;-86
2022/03/15 02:18:44;;;;;;;4.50;2.47;;;4.70;99.90;;;;;;4996711;28;20037;-85
2022/03/15 02:21:10;;;;;;;6.93;2.78;;;4.70;99.90;;;;;;4996980;28;20122;-85
2022/03/15 02:23:36;;;;;;;9.70;2.45;;;4.70;99.90;;;;;;4995032;28;20145;-85
2022/03/15 02:26:02;;;;;;;5.68;1.90;;;4.80;99.90;;;;;;4995097;28;20576;-85
2022/03/15 02:28:29;;;;;;;9.02;2.60;;;4.90;99.90;;;;;;4994839;28;20529;-85
2022/03/15 02:30:55;;;;;;;5.70;2.47;;;4.90;99.90;;;;;;4978927;28;20092;-85
2022/03/15 02:33:21;;;;;;;5.22;2.33;;;5.00;99.90;;;;;;4978741;28;20057;-85
2022/03/15 02:35:47;;;;;;;12.57;3.10;;;5.00;99.90;;;;;;4995747;28;20038;-85
2022/03/15 02:38:12;;;;;;;5.88;2.50;;;4.90;99.90;;;;;;4978554;28;20362;-85
2022/03/15 02:40:38;;;;;;;6.72;2.20;;;4.90;99.90;;;;;;4996248;28;20381;-85
2022/03/15 02:43:04;;;;;;;9.70;2.67;;;5.00;99.90;;;;;;4962441;28;20481;-85
2022/03/15 02:45:30;;;;;;;6.15;2.45;;;5.10;99.90;;;;;;4978422;28;20453;-85
2022/03/15 02:47:56;;;;;;;4.85;2.25;;;5.10;99.90;;;;;;4994900;28;20748;-85
2022/03/15 02:50:22;;;;;;;16.05;2.90;;;5.20;99.90;;;;;;4996312;28;20073;-85
2022/03/15 02:52:48;;;;;;;6.90;2.30;;;5.20;99.90;;;;;;4978576;28;20051;-85
2022/03/15 02:55:16;;;;;;;8.25;3.28;;;5.20;99.90;;;;;;4994970;28;20091;-85
2022/03/15 02:57:46;;;;;;;12.05;3.45;;;5.10;99.90;;;;;;4962898;28;20072;-84
2022/03/15 03:00:12;;;;;;;8.60;2.20;;;5.10;99.90;;;;;;4978332;28;20030;-85
2022/03/15 03:02:38;;;;;;;6.35;2.10;;;5.10;99.90;;;;;;4978076;28;20520;-85
2022/03/15 03:05:03;;;;;;;6.30;2.13;;;5.20;99.90;;;;;;4994072;28;20042;-85
2022/03/15 03:07:29;;;;;;;7.50;2.40;;;5.20;99.90;;;;;;4977442;28;20375;-85
2022/03/15 03:09:55;;;;;;;5.03;2.30;;;5.10;99.90;;;;;;4977538;28;20033;-85
2022/03/15 03:12:20;;;;;;;9.52;2.58;;;5.10;99.90;;;;;;4995144;28;20026;-85
2022/03/15 03:14:48;;;;;;;10.15;2.80;;;5.10;99.90;;;;;;4995069;28;20099;-85
2022/03/15 03:17:14;;;;;;;7.65;2.50;;;5.10;99.90;;;;;;4961032;28;20441;-86
2022/03/15 03:19:40;;;;;;;5.38;2.55;;;5.10;99.90;;;;;;4977804;28;20113;-85
2022/03/15 03:22:06;;;;;;;9.40;2.35;;;5.10;99.90;;;;;;4977752;28;20169;-85
2022/03/15 03:24:32;;;;;;;13.35;2.60;;;5.20;99.90;;;;;;4977801;28;20045;-85
2022/03/15 03:27:01;;;;;;;6.10;2.70;;;5.20;99.90;;;;;;4994914;28;20149;-85
2022/03/15 03:29:29;;;;;;;6.25;2.30;;;5.20;99.90;;;;;;4995477;28;20038;-86
2022/03/15 03:31:55;;;;;;;7.28;2.50;;;5.20;99.90;;;;;;4995204;28;20065;-85
2022/03/15 03:34:21;;;;;;;6.07;2.90;;;5.20;99.90;;;;;;4977602;28;20034;-85
2022/03/15 03:36:47;;;;;;;6.57;2.70;;;5.20;99.90;;;;;;4961838;28;20033;-85
2022/03/15 03:39:13;;;;;;;6.93;2.47;;;5.20;99.90;;;;;;4961734;28;20034;-85
2022/03/15 03:41:40;;;;;;;10.48;3.15;;;5.10;99.90;;;;;;4961408;28;20038;-85
2022/03/15 03:44:05;;;;;;;3.88;2.80;;;5.00;99.90;;;;;;4961120;28;20084;-86
2022/03/15 03:46:31;;;;;;;11.55;2.88;;;4.90;99.90;;;;;;4976773;28;20792;-85
2022/03/15 03:48:58;;;;;;;7.20;3.08;;;4.90;99.90;;;;;;4976680;28;20385;-85
2022/03/15 03:51:23;;;;;;;6.38;3.03;;;4.90;99.90;;;;;;4994185;28;20061;-85
2022/03/15 03:53:49;;;;;;;6.95;3.30;;;4.90;99.90;;;;;;4994315;28;20030;-85
2022/03/15 03:56:15;;;;;;;11.43;4.32;;;4.80;99.90;;;;;;4960893;28;20037;-85
2022/03/15 03:58:41;;;;;;;10.20;3.45;;;4.80;99.90;;;;;;4960323;28;20030;-85
2022/03/15 04:01:06;;;;;;;9.65;3.72;;;4.70;99.90;;;;;;4960624;28;20034;-85
2022/03/15 04:03:33;;;;;;;12.02;3.58;;;4.70;99.90;;;;;;4976785;28;20034;-85
2022/03/15 04:06:04;;;;;;;6.75;3.30;;;4.80;99.90;;;;;;4992680;28;20428;-85
2022/03/15 04:08:31;;;;;;;8.60;4.00;;;4.70;99.90;;;;;;4993663;28;20085;-85
2022/03/15 04:10:57;;;;;;;8.80;3.55;;;4.70;99.90;;;;;;4992801;28;20378;-85
2022/03/15 04:13:25;;;;;;;10.27;3.97;;;4.60;99.90;;;;;;4976486;28;20034;-85
2022/03/15 04:15:51;;;;;;;15.15;4.07;;;4.60;99.90;;;;;;4960557;28;20142;-85
2022/03/15 04:18:17;;;;;;;8.98;3.92;;;4.70;99.90;;;;;;4960158;28;20035;-85
2022/03/15 04:20:42;;;;;;;10.57;4.30;;;4.80;99.90;;;;;;4993682;28;20018;-85
2022/03/15 04:23:11;;;;;;;15.30;4.38;;;4.80;99.90;;;;;;4991790;28;20029;-85
2022/03/15 04:25:38;;;;;;;8.43;4.20;;;4.90;99.90;;;;;;4959970;28;20048;-85
2022/03/15 04:28:04;;;;;;;8.70;3.92;;;4.90;99.90;;;;;;4992317;28;20389;-85
2022/03/15 04:30:39;;;;;;;9.38;4.45;;;4.90;99.90;;;;;;4960325;28;20030;-85
2022/03/15 04:33:04;;;;;;;10.20;4.65;;;4.90;99.90;;;;;;4959792;28;20026;-85
2022/03/15 04:35:30;;;;;;;7.43;4.50;;;5.00;99.90;;;;;;4975951;28;20375;-86
2022/03/15 04:37:57;;;;;;;6.53;4.10;;;5.00;99.90;;;;;;4959356;28;20106;-85
2022/03/15 04:40:22;;;;;;;14.13;5.05;;;5.00;99.90;;;;;;4975634;28;20740;-85
2022/03/15 04:42:48;;;;;;;10.70;4.03;;;5.00;99.90;;;;;;4993565;28;20026;-85
2022/03/15 04:45:15;;;;;;;8.07;4.35;;;5.00;99.90;;;;;;4992463;28;20061;-85
2022/03/15 04:47:42;;;;;;;9.00;5.05;;;5.10;99.90;;;;;;4992262;28;20044;-85
2022/03/15 04:50:09;;;;;;;9.55;4.93;;;5.00;99.90;;;;;;4992469;28;20038;-85
2022/03/15 04:52:35;;;;;;;9.30;4.22;;;5.10;99.90;;;;;;4992013;28;20038;-85
2022/03/15 04:55:02;;;;;;;9.52;4.32;;;5.10;99.90;;;;;;4975971;28;20027;-85
2022/03/15 04:57:27;;;;;;;9.23;4.15;;;5.20;99.90;;;;;;4991887;28;20482;-85
2022/03/15 04:59:53;;;;;;;8.63;4.32;;;5.10;99.90;;;;;;4975425;28;20041;-85
2022/03/15 05:02:19;;;;;;;8.73;4.38;;;5.10;99.90;;;;;;4975912;28;20474;-85
2022/03/15 05:04:44;;;;;;;9.77;4.90;;;5.10;99.90;;;;;;4992231;28;20030;-85
2022/03/15 05:07:10;;;;;;;13.18;4.00;;;5.10;99.90;;;;;;4992610;28;20031;-85
2022/03/15 05:11:05;;;;;;;14.80;4.85;;;5.20;99.90;;;;;;4976594;28;20035;-85
2022/03/15 05:12:22;;;;;;;7.47;4.55;;;5.20;99.90;;;;;;4979918;28;20030;-85
2022/03/15 05:14:47;;;;;;;14.30;4.90;;;5.20;99.90;;;;;;4997308;28;20030;-85
2022/03/15 05:17:13;;;;;;;12.13;5.00;;;5.20;99.90;;;;;;4979731;28;20030;-86
2022/03/15 05:19:38;;;;;;;14.20;4.45;;;5.30;99.90;;;;;;4980088;28;20037;-86
2022/03/15 05:22:04;;;;;;;9.27;4.57;;;5.30;99.90;;;;;;4996849;28;20031;-85
2022/03/15 05:24:30;;;;;;;10.77;4.55;;;5.30;99.90;;;;;;4996785;28;20039;-85
2022/03/15 05:26:57;;;;;;;12.65;5.22;;;5.30;99.90;;;;;;4963170;28;20715;-85
2022/03/15 05:29:24;;;;;;;9.75;4.35;;;5.30;99.90;;;;;;4995642;28;20034;-85
2022/03/15 05:31:49;;;;;;;14.10;4.57;;;5.30;99.90;;;;;;4979670;28;20038;-85
2022/03/15 05:34:17;;;;;;;12.65;4.85;;;5.40;99.90;;;;;;4979190;28;20492;-85
2022/03/15 05:36:44;;;;;;;13.75;4.93;;;5.40;99.90;;;;;;4963207;28;20481;-85
2022/03/15 05:39:10;;;;;;;12.52;5.65;;;5.40;99.90;;;;;;4978961;28;20027;-85
2022/03/15 05:41:35;;;;;;;7.13;4.28;;;5.50;99.90;;;;;;4995742;28;20034;-83
2022/03/15 05:44:01;;;;;;;11.73;4.70;;;5.50;99.90;;;;;;4979063;28;20874;-83
2022/03/15 05:46:27;;;;;;;14.90;4.80;;;5.60;99.90;;;;;;4979115;28;20026;-83
2022/03/15 05:48:53;;;;;;;15.65;4.43;;;5.50;99.90;;;;;;4978715;28;20126;-83
2022/03/15 05:51:19;;;;;;;12.25;4.47;;;5.50;99.90;;;;;;4962576;28;20034;-83
2022/03/15 05:53:45;;;;;;;11.60;4.38;;;5.50;99.90;;;;;;4994844;28;20034;-83
2022/03/15 05:56:11;;;;;;;9.18;4.20;;;5.50;99.90;;;;;;4978863;28;20086;-83
2022/03/15 05:58:37;;;;;;;10.15;4.22;;;5.50;99.90;;;;;;4978816;28;20041;-83
2022/03/15 06:01:03;;;;;;;10.80;4.80;;;5.50;99.90;;;;;;4996223;28;20109;-83
2022/03/15 06:03:29;;;;;;;10.00;4.45;;;5.50;99.90;;;;;;4996097;28;20128;-83
2022/03/15 06:05:54;;;;;;;19.10;4.80;;;5.50;99.90;;;;;;4962442;28;20034;-82
2022/03/15 06:08:20;;;;;;;10.45;4.72;;;5.50;99.90;;;;;;4962230;28;20035;-82
2022/03/15 06:10:46;;;;;;;18.95;4.57;;;5.50;99.90;;;;;;4978189;28;20113;-83
2022/03/15 06:13:12;;;;;;;15.10;5.35;;;5.50;99.90;;;;;;4962217;28;20092;-83
2022/03/15 06:16:01;;;;;;;14.00;4.40;;;5.50;99.90;;;;;;4962080;28;20030;-83
2022/03/15 06:18:27;;;;;;;11.45;4.72;;;5.50;99.90;;;;;;4993834;28;20112;-83
2022/03/15 06:20:52;;;;;;;11.18;5.68;;;5.60;99.90;;;;;;4995853;28;20093;-83
2022/03/15 06:23:18;;;;;;;12.20;5.82;;;5.70;99.90;;;;;;4962091;28;20019;-83
2022/03/15 06:25:44;;;;;;;12.60;5.30;;;5.70;99.90;;;;;;4994344;28;20040;-83
2022/03/15 06:28:10;;;;;;;18.42;6.10;;;5.80;99.90;;;;;;4978580;28;20128;-84
2022/03/15 06:30:36;;;;;;;8.15;5.30;;;5.80;99.90;;;;;;4995639;28;20031;-83
2022/03/15 06:33:03;;;;;;;13.23;5.60;;;6.00;99.90;;;;;;4978190;28;20034;-83
2022/03/15 06:35:29;;;;;;;12.55;4.80;;;6.00;99.90;;;;;;4961622;28;20038;-82
2022/03/15 06:37:56;;;;;;;15.45;6.00;;;6.10;99.90;;;;;;4977132;28;20034;-83
2022/03/15 06:40:25;;;;;;;11.80;5.43;;;6.10;99.90;;;;;;4977541;28;20030;-83
2022/03/15 06:42:54;;;;;;;12.60;5.15;;;6.10;99.90;;;;;;4993641;28;20034;-82
2022/03/15 06:45:20;;;;;;;10.27;5.25;;;6.20;99.90;;;;;;4995147;28;20080;-83
2022/03/15 06:47:46;;;;;;;14.93;5.25;;;6.20;99.90;;;;;;4977944;28;20022;-83
2022/03/15 06:50:13;;;;;;;13.55;5.00;;;6.20;99.90;;;;;;4978041;28;20041;-83
2022/03/15 06:52:44;;;;;;;14.38;5.07;;;6.20;99.90;;;;;;4994034;28;20042;-83
2022/03/15 06:55:10;;;;;;;19.93;5.33;;;6.30;99.90;;;;;;4961779;28;20096;-83
2022/03/15 06:57:36;;;;;;;8.13;4.85;;;6.20;99.90;;;;;;4961712;28;20720;-83
2022/03/15 07:00:08;;;;;;;15.20;5.25;;;6.30;99.90;;;;;;4962016;28;20141;-83
2022/03/15 07:02:34;;;;;;;;;;;6.40;99.90;;;;;;4978461;28;20030;-83
2022/03/15 07:04:59;;;;;;;14.35;5.28;;;6.40;99.90;;;;;;4978100;28;19910;-83
2022/03/15 07:07:25;;;;;;;16.95;6.22;;;6.50;99.90;;;;;;4977803;28;20390;-83
2022/03/15 07:09:52;;;;;;;11.70;5.18;;;6.50;99.90;;;;;;4995575;28;20029;-84
2022/03/15 07:12:19;;;;;;;10.68;4.63;;;6.50;99.90;;;;;;4961834;28;20038;-83
2022/03/15 07:14:45;;;;;;;10.25;5.22;;;6.60;99.90;;;;;;4961837;28;20033;-83
2022/03/15 07:17:11;;;;;;;9.90;4.82;;;6.60;99.90;;;;;;4977765;28;20038;-84
2022/03/15 07:19:43;;;;;;;16.33;5.00;;;6.70;99.90;;;;;;4961294;28;20481;-83
2022/03/15 07:22:09;;;;;;;10.65;4.72;;;6.80;99.90;;;;;;4961192;28;20022;-83
2022/03/15 07:24:35;;;;;;;11.20;4.97;;;6.90;99.90;;;;;;4977109;28;20066;-83
2022/03/15 07:27:02;;;;;;;9.05;4.43;;;6.90;99.90;;;;;;4960425;28;20030;-84
2022/03/15 07:29:27;;;;;;;11.55;5.07;;;7.10;99.90;;;;;;4977027;28;20042;-83
2022/03/15 07:31:54;;;;;;;17.00;7.65;;;7.10;99.90;;;;;;4977016;28;20081;-84
2022/03/15 07:34:21;;;;;;;40.65;13.80;;;7.30;99.90;;;;;;4994435;28;20043;-83
2022/03/15 07:36:47;;;;;;;24.33;9.50;;;7.40;99.90;;;;;;4992641;28;20023;-83
2022/03/15 07:39:12;;;;;;;17.00;8.43;;;7.40;99.90;;;;;;4976784;28;20081;-84
2022/03/15 07:41:39;;;;;;;20.27;7.25;;;7.50;99.90;;;;;;4976489;28;20030;-83
2022/03/15 07:44:10;;;;;;;14.45;4.90;;;7.60;99.90;;;;;;4993093;28;20437;-83
2022/03/15 07:46:36;;;;;;;11.15;5.53;;;7.80;99.90;;;;;;4977038;28;20389;-83
2022/03/15 07:49:03;;;;;;;15.65;4.95;;;7.80;99.90;;;;;;4960822;28;20578;-83
2022/03/15 07:51:29;;;;;;;12.32;5.05;;;7.90;99.90;;;;;;4977066;28;20512;-83
2022/03/15 07:53:55;;;;;;;15.95;5.68;;;7.90;99.90;;;;;;4976905;28;20070;-84
2022/03/15 07:56:22;;;;;;;9.98;4.97;;;7.90;99.90;;;;;;4993401;28;20034;-84
2022/03/15 07:58:48;;;;;;;7.80;4.90;;;7.90;99.90;;;;;;4994761;28;20038;-83
2022/03/15 08:01:14;;;;;;;14.57;5.43;;;7.90;99.90;;;;;;4978693;28;20038;-84
2022/03/15 08:03:39;;;;;;;12.23;5.30;;;7.80;99.90;;;;;;4979028;28;20037;-84
2022/03/15 08:06:05;;;;;;;15.13;5.57;;;7.80;99.90;;;;;;4993025;28;20023;-84
2022/03/15 08:08:31;;;;;;;12.43;5.45;;;7.80;99.90;;;;;;4993997;28;20112;-83
2022/03/15 08:10:57;;;;;;;8.45;5.20;;;7.80;99.90;;;;;;4960127;28;20474;-83
2022/03/15 08:13:23;;;;;;;13.60;5.60;;;7.80;99.90;;;;;;4976490;28;20694;-83
2022/03/15 08:15:49;;;;;;;15.07;6.68;;;7.80;99.90;;;;;;4960483;28;20038;-83
2022/03/15 08:18:15;;;;;;;19.50;5.90;;;7.90;99.90;;;;;;4976259;28;20022;-83
2022/03/15 08:20:41;;;;;;;11.07;5.25;;;7.90;99.90;;;;;;4993281;28;20061;-83
2022/03/15 08:23:10;;;;;;;11.00;5.10;;;7.80;99.90;;;;;;4994056;28;20045;-83
2022/03/15 08:25:36;;;;;;;11.38;5.72;;;7.70;99.90;;;;;;4992615;28;20501;-83
2022/03/15 08:28:02;;;;;;;13.48;5.43;;;7.60;99.90;;;;;;4993627;28;20026;-83
2022/03/15 08:30:28;;;;;;;10.05;5.32;;;7.50;99.90;;;;;;4994202;28;20022;-84
2022/03/15 08:32:55;;;;;;;14.80;5.53;;;7.40;99.90;;;;;;4993915;28;20030;-83
2022/03/15 08:35:21;;;;;;;13.68;6.05;;;7.30;99.90;;;;;;4992754;28;20077;-83
2022/03/15 08:37:51;;;;;;;11.82;6.25;;;7.30;99.90;;;;;;4991522;28;20045;-84
2022/03/15 08:40:18;;;;;;;15.90;6.18;;;7.40;99.90;;;;;;4972560;28;20621;-83
2022/03/15 08:42:46;;;;;;;14.68;7.18;;;7.20;99.90;;;;;;4976343;28;20065;-83
2022/03/15 08:45:12;;;;;;;19.90;7.25;;;7.30;99.90;;;;;;4959462;28;20034;-83
2022/03/15 08:47:38;;;;;;;13.30;6.10;;;7.30;99.90;;;;;;4975786;28;20535;-83
2022/03/15 08:50:06;;;;;;;18.05;6.82;;;7.20;99.90;;;;;;4992384;28;20394;-83
2022/03/15 08:52:32;;;;;;;17.40;7.57;;;7.20;99.90;;;;;;4976409;28;20038;-84
2022/03/15 08:54:58;;;;;;;10.82;7.00;;;7.20;99.90;;;;;;4992458;28;20081;-83
2022/03/15 08:57:23;;;;;;;13.10;6.88;;;7.20;99.90;;;;;;4976315;28;20112;-84
2022/03/15 08:59:49;;;;;;;13.02;6.75;;;7.30;99.90;;;;;;4960261;28;20038;-83
2022/03/15 09:02:17;;;;;;;13.25;7.20;;;7.60;99.90;;;;;;4960213;28;20093;-83
2022/03/15 09:04:43;;;;;;;10.27;5.90;;;7.90;99.90;;;;;;4960112;28;20035;-84
2022/03/15 09:07:09;;;;;;;13.77;6.70;;;8.10;99.90;;;;;;4975715;28;20050;-81
2022/03/15 09:09:35;;;;;;;14.02;6.85;;;8.20;99.90;;;;;;4975887;28;20066;-81
2022/03/15 09:12:02;;;;;;;18.80;7.00;;;8.40;99.90;;;;;;4992006;28;20509;-83
2022/03/15 09:14:28;;;;;;;16.42;7.00;;;8.30;99.90;;;;;;4959313;28;20034;-83
2022/03/15 09:16:54;;;;;;;18.45;7.00;;;8.20;99.90;;;;;;4993258;28;20022;-83
2022/03/15 09:19:20;;;;;;;13.20;6.20;;;8.20;99.90;;;;;;4975991;28;20026;-83
2022/03/15 09:21:46;;;;;;;16.13;5.97;;;8.10;99.90;;;;;;4960030;28;20121;-84
2022/03/15 09:24:12;;;;;;;10.57;6.05;;;8.30;99.90;;;;;;4960095;28;20038;-83
2022/03/15 09:26:48;;;;;;;14.27;6.57;;;8.40;99.90;;;;;;4975883;28;20084;-83
2022/03/15 09:29:13;;;;;;;12.95;6.45;;;8.60;99.90;;;;;;4975784;28;20085;-83
2022/03/15 09:31:39;;;;;;;18.55;6.28;;;8.60;99.90;;;;;;4959256;28;20055;-83
2022/03/15 09:34:05;;;;;;;14.35;6.47;;;8.60;99.90;;;;;;4959103;28;20043;-83
2022/03/15 09:36:31;;;;;;;14.43;7.10;;;8.50;99.90;;;;;;4959908;28;20121;-83
2022/03/15 09:38:57;;;;;;;23.45;8.30;;;8.50;99.90;;;;;;4975947;28;20470;-83
2022/03/15 09:41:25;;;;;;;13.45;7.25;;;8.30;99.90;;;;;;4976058;28;20026;-83
2022/03/15 09:43:54;;;;;;;15.05;7.78;;;8.20;99.90;;;;;;4975948;28;20404;-83
2022/03/15 09:46:22;;;;;;;24.95;8.63;;;8.20;99.90;;;;;;4975500;28;20180;-84
2022/03/15 09:48:55;;;;;;;19.73;8.65;;;8.20;99.90;;;;;;4991987;28;20033;-83
2022/03/15 09:51:27;;;;;;;17.23;7.40;;;8.20;99.90;;;;;;4991857;28;20049;-83
2022/03/15 09:53:56;;;;;;;15.70;6.75;;;8.10;99.90;;;;;;4960170;28;20034;-83
2022/03/15 09:56:22;;;;;;;16.08;7.35;;;8.20;99.90;;;;;;4993915;28;20030;-83
2022/03/15 09:58:48;;;;;;;18.90;7.40;;;8.40;99.90;;;;;;4995618;28;20026;-83
2022/03/15 10:01:18;;;;;;;17.90;8.68;;;8.40;99.90;;;;;;4963346;28;20093;-83
2022/03/15 10:03:47;;;;;;;16.02;8.35;;;8.60;99.90;;;;;;4963104;28;20089;-83
2022/03/15 10:06:15;;;;;;;13.30;7.75;;;8.60;99.90;;;;;;4996355;28;20033;-83
2022/03/15 10:08:42;;;;;;;22.52;7.72;;;8.50;99.90;;;;;;4962820;28;20085;-83
2022/03/15 10:11:09;;;;;;;17.17;9.80;;;8.30;99.90;;;;;;4963239;28;20048;-83
2022/03/15 10:13:35;;;;;;;15.35;7.50;;;8.20;99.90;;;;;;4996850;28;20088;-83
2022/03/15 10:16:03;;;;;;;18.70;8.55;;;8.20;99.90;;;;;;4979490;28;20022;-83
2022/03/15 10:18:29;;;;;;;15.32;7.18;;;8.10;99.90;;;;;;4964517;28;20042;-83
2022/03/15 10:20:56;;;;;;;18.98;7.05;;;8.20;99.90;;;;;;4979254;28;20038;-83
2022/03/15 10:23:29;;;;;;;10.10;6.45;;;8.40;99.90;;;;;;4978721;28;20497;-83
2022/03/15 10:25:56;;;;;;;12.65;6.78;;;8.40;99.90;;;;;;4996123;28;20030;-83
2022/03/15 10:28:23;;;;;;;18.95;7.15;;;8.60;99.90;;;;;;4962534;28;20401;-83
2022/03/15 10:30:49;;;;;;;23.30;7.18;;;8.50;99.90;;;;;;4963071;28;20027;-83
2022/03/15 10:33:17;;;;;;;12.70;6.97;;;8.60;99.90;;;;;;4978277;28;20061;-82
2022/03/15 10:38:49;;;;;;;13.05;7.20;;;8.50;99.90;;;;;;4980200;28;20038;-86
2022/03/15 10:41:16;;;;;;;15.18;7.38;;;8.40;99.90;;;;;;4979737;28;20516;-87
2022/03/15 10:43:42;;;;;;;14.85;7.20;;;8.20;99.90;;;;;;4980513;28;20474;-86
2022/03/15 10:46:10;;;;;;;14.90;6.65;;;8.00;99.90;;;;;;4979731;28;20030;-87
2022/03/15 10:48:37;;;;;;;19.65;8.40;;;7.80;99.90;;;;;;4996168;28;20463;-86
2022/03/15 10:51:10;;;;;;;15.38;7.97;;;7.60;99.90;;;;;;4996194;28;20054;-87
2022/03/15 10:53:42;;;;;;;13.88;7.68;;;7.60;99.90;;;;;;4963601;28;20069;-87
2022/03/15 10:56:28;;;;;;;16.33;7.13;;;7.70;99.90;;;;;;4963851;28;20033;-86
2022/03/15 10:59:04;;;;;;;15.63;7.88;;;7.70;99.90;;;;;;4996819;28;20050;-86
2022/03/15 11:01:38;;;;;;;13.93;7.95;;;7.70;99.90;;;;;;4979959;28;20034;-85
2022/03/15 11:04:06;;;;;;;22.48;8.88;;;7.50;99.90;;;;;;4979731;28;20033;-86
2022/03/15 11:06:38;;;;;;;17.85;8.70;;;7.40;99.90;;;;;;4963690;28;20023;-86
2022/03/15 11:09:22;;;;;;;;;;;7.20;99.90;;;;;;4995561;28;20557;-86
2022/03/15 11:12:02;;;;;;;19.00;9.95;;;7.20;99.90;;;;;;4979537;28;19996;-86
2022/03/15 11:14:44;;;;;;;22.98;11.43;;;7.20;99.90;;;;;;4979011;28;20088;-86
2022/03/15 11:17:20;;;;;;;16.25;9.60;;;7.10;99.90;;;;;;4962849;28;20482;-86
2022/03/15 11:19:48;;;;;;;14.82;8.68;;;7.10;99.90;;;;;;4995209;28;20030;-86
2022/03/15 11:22:16;;;;;;;18.60;9.57;;;7.00;99.90;;;;;;4979132;28;20026;-86
2022/03/15 11:25:07;;;;;;;21.23;10.32;;;6.90;99.90;;;;;;4979263;28;20038;-86
2022/03/15 11:27:41;;;;;;;20.63;10.75;;;7.00;99.90;;;;;;4996227;28;20038;-86
2022/03/15 11:30:10;;;;;;;16.98;10.13;;;7.20;99.90;;;;;;4979478;28;20120;-87
2022/03/15 11:32:37;;;;;;;16.58;8.95;;;7.30;99.90;;;;;;4996359;28;20104;-86
2022/03/15 11:35:05;;;;;;;18.33;9.85;;;7.30;99.90;;;;;;4962250;28;20085;-86
2022/03/15 11:37:31;;;;;;;15.52;8.95;;;7.30;99.90;;;;;;4962837;28;20066;-86
2022/03/15 11:40:04;;;;;;;17.40;9.63;;;7.40;99.90;;;;;;4978734;28;20030;-87
2022/03/15 11:42:32;;;;;;;18.52;9.07;;;7.60;99.90;;;;;;4962322;28;20129;-86
2022/03/15 11:45:24;;;;;;;17.83;10.40;;;7.50;99.90;;;;;;4995888;28;20097;-85
2022/03/15 11:48:43;;;;;;;16.17;9.85;;;7.40;99.90;;;;;;4977933;28;20034;-87
2022/03/15 11:51:42;;;;;;;22.92;9.77;;;7.50;99.90;;;;;;4919634;29;20047;-86
2022/03/15 11:54:38;;;;;;;20.05;11.20;;;7.50;99.90;;;;;;4978450;28;20056;-86
2022/03/15 11:57:10;;;;;;;22.27;10.55;;;7.50;99.90;;;;;;4978546;28;20469;-86
2022/03/15 11:59:53;;;;;;;26.52;11.35;;;7.40;99.90;;;;;;4962220;28;20141;-86
2022/03/15 12:02:39;;;;;;;24.80;12.98;;;7.40;99.90;;;;;;4994239;28;20028;-86
2022/03/15 12:05:20;;;;;;;18.70;11.52;;;7.30;99.90;;;;;;4996368;28;20034;-86
2022/03/15 12:08:07;;;;;;;19.52;10.35;;;7.30;99.90;;;;;;4979291;28;20073;-86
2022/03/15 12:10:37;;;;;;;24.27;12.63;;;7.30;99.90;;;;;;4962062;28;20485;-86
2022/03/15 12:13:05;;;;;;;21.58;10.35;;;7.30;99.90;;;;;;4995479;28;20041;-86
2022/03/15 12:15:41;;;;;;;23.77;13.27;;;7.20;99.90;;;;;;4961620;28;20089;-86
2022/03/15 12:21:06;;;;;;;21.75;11.13;;;6.90;99.90;;;;;;4978020;28;20085;-86
2022/03/15 12:23:42;;;;;;;16.35;9.60;;;6.80;99.90;;;;;;4961885;28;20121;-85
2022/03/15 12:26:30;;;;;;;18.13;8.82;;;6.70;99.90;;;;;;4977422;28;20030;-86
2022/03/15 12:28:57;;;;;;;18.58;9.75;;;6.70;99.90;;;;;;4964595;28;20042;-86
2022/03/15 12:31:32;;;;;;;22.85;12.20;;;6.60;99.90;;;;;;4961033;28;20077;-86
2022/03/15 12:34:06;;;;;;;19.48;10.95;;;6.40;99.90;;;;;;4961035;28;20045;-86
2022/03/15 12:36:53;;;;;;;24.75;11.15;;;6.30;99.90;;;;;;4960971;28;20038;-86
2022/03/15 12:39:24;;;;;;;24.80;12.60;;;6.30;99.90;;;;;;4963094;28;20049;-85
2022/03/15 12:42:05;;;;;;;24.65;13.23;;;6.30;99.90;;;;;;4960938;28;20617;-86
2022/03/15 12:45:06;;;;;;;26.13;13.73;;;6.30;99.90;;;;;;4977228;28;20479;-85
2022/03/15 12:47:33;;;;;;;23.60;13.60;;;6.20;99.90;;;;;;4950674;28;20030;-86
2022/03/15 12:50:21;;;;;;;25.88;13.32;;;6.10;99.90;;;;;;4961006;28;20030;-85
2022/03/15 12:53:07;;;;;;;24.20;13.20;;;6.00;99.90;;;;;;4976493;28;20030;-86
2022/03/15 12:55:41;;;;;;;24.95;13.60;;;5.90;99.90;;;;;;4960395;28;20054;-86
2022/03/15 12:58:09;;;;;;;40.50;16.33;;;5.80;99.90;;;;;;4976775;28;20081;-85
2022/03/15 13:00:42;;;;;;;37.75;16.77;;;5.80;99.90;;;;;;4960493;28;20023;-85
2022/03/15 13:03:10;;;;;;;35.47;16.42;;;5.90;99.90;;;;;;4960607;28;20713;-86